sensor_id;sensor_type;location;lat;lon;timestamp;pressure;altitude;pressure_sealevel;temperature;humidity
45403;BME280;47427;51.976;5.326;2023-12-04T00:01:52;101249.09;;;0.56;100.00
45403;BME280;47427;51.976;5.326;2023-12-04T00:04:55;101252.91;;;0.61;100.00
45403;BME280;47427;51.976;5.326;2023-12-04T00:07:58;101251.19;;;0.61;100.00
45403;BME280;47427;51.976;5.326;2023-12-04T00:10:59;101240.53;;;0.57;100.00
45403;BME280;47427;51.976;5.326;2023-12-04T00:14:02;101240.06;;;0.62;100.00
45403;BME280;47427;51.976;5.326;2023-12-04T00:17:05;101229.09;;;0.53;100.00
45403;BME280;47427;51.976;5.326;2023-12-04T00:20:09;101235.13;;;0.65;100.00
45403;BME280;47427;51.976;5.326;2023-12-04T00:23:12;101235.81;;;0.63;100.00
45403;BME280;47427;51.976;5.326;2023-12-04T00:26:15;101223.38;;;0.34;100.00
45403;BME280;47427;51.976;5.326;2023-12-04T00:29:18;101217.53;;;0.36;100.00
45403;BME280;47427;51.976;5.326;2023-12-04T00:32:20;101213.81;;;0.33;100.00
45403;BME280;47427;51.976;5.326;2023-12-04T00:35:23;101207.09;;;0.35;100.00
45403;BME280;47427;51.976;5.326;2023-12-04T00:38:25;101201.72;;;0.43;100.00
45403;BME280;47427;51.976;5.326;2023-12-04T00:41:27;101209.47;;;0.43;100.00
45403;BME280;47427;51.976;5.326;2023-12-04T00:44:30;101196.91;;;0.36;100.00
45403;BME280;47427;51.976;5.326;2023-12-04T00:47:33;101192.28;;;0.44;100.00
45403;BME280;47427;51.976;5.326;2023-12-04T00:50:35;101192.84;;;0.40;100.00
45403;BME280;47427;51.976;5.326;2023-12-04T00:53:38;101192.28;;;0.44;100.00
45403;BME280;47427;51.976;5.326;2023-12-04T00:56:41;101183.75;;;0.45;100.00
45403;BME280;47427;51.976;5.326;2023-12-04T00:59:44;101178.50;;;0.43;100.00
45403;BME280;47427;51.976;5.326;2023-12-04T01:02:46;101178.59;;;0.45;100.00
45403;BME280;47427;51.976;5.326;2023-12-04T01:05:49;101184.00;;;0.48;100.00
45403;BME280;47427;51.976;5.326;2023-12-04T01:08:53;101185.66;;;0.48;100.00
45403;BME280;47427;51.976;5.326;2023-12-04T01:11:56;101179.59;;;0.47;100.00
45403;BME280;47427;51.976;5.326;2023-12-04T01:14:58;101179.03;;;0.51;100.00
45403;BME280;47427;51.976;5.326;2023-12-04T01:18:00;101180.81;;;0.40;100.00
45403;BME280;47427;51.976;5.326;2023-12-04T01:21:03;101162.22;;;0.33;100.00
45403;BME280;47427;51.976;5.326;2023-12-04T01:24:06;101162.53;;;0.37;100.00
45403;BME280;47427;51.976;5.326;2023-12-04T01:27:08;101160.63;;;0.35;100.00
45403;BME280;47427;51.976;5.326;2023-12-04T01:30:11;101164.91;;;0.34;100.00
45403;BME280;47427;51.976;5.326;2023-12-04T01:33:15;101158.41;;;0.28;100.00
45403;BME280;47427;51.976;5.326;2023-12-04T01:36:17;101159.19;;;0.27;100.00
45403;BME280;47427;51.976;5.326;2023-12-04T01:39:19;101159.41;;;0.30;100.00
45403;BME280;47427;51.976;5.326;2023-12-04T01:42:22;101158.53;;;0.29;100.00
45403;BME280;47427;51.976;5.326;2023-12-04T01:45:25;101154.25;;;0.41;100.00
45403;BME280;47427;51.976;5.326;2023-12-04T01:48:28;101141.69;;;0.34;100.00
45403;BME280;47427;51.976;5.326;2023-12-04T01:51:30;101150.31;;;0.47;100.00
45403;BME280;47427;51.976;5.326;2023-12-04T01:54:34;101145.50;;;0.39;100.00
45403;BME280;47427;51.976;5.326;2023-12-04T01:57:37;101117.91;;;0.27;100.00
45403;BME280;47427;51.976;5.326;2023-12-04T02:00:40;101136.66;;;0.36;100.00
45403;BME280;47427;51.976;5.326;2023-12-04T02:03:43;101134.97;;;0.36;100.00
45403;BME280;47427;51.976;5.326;2023-12-04T02:06:45;101121.38;;;0.39;100.00
45403;BME280;47427;51.976;5.326;2023-12-04T02:09:48;101134.81;;;0.47;100.00
45403;BME280;47427;51.976;5.326;2023-12-04T02:12:51;101127.22;;;0.36;100.00
45403;BME280;47427;51.976;5.326;2023-12-04T02:15:55;101104.44;;;0.31;100.00
45403;BME280;47427;51.976;5.326;2023-12-04T02:19:01;101114.88;;;0.32;100.00
45403;BME280;47427;51.976;5.326;2023-12-04T02:22:04;101113.50;;;0.37;100.00
45403;BME280;47427;51.976;5.326;2023-12-04T02:25:08;101112.16;;;0.42;100.00
45403;BME280;47427;51.976;5.326;2023-12-04T02:28:14;101102.50;;;0.40;100.00
45403;BME280;47427;51.976;5.326;2023-12-04T02:31:17;101085.72;;;0.33;100.00
45403;BME280;47427;51.976;5.326;2023-12-04T02:34:21;101083.69;;;0.29;100.00
45403;BME280;47427;51.976;5.326;2023-12-04T02:37:26;101086.94;;;0.27;100.00
45403;BME280;47427;51.976;5.326;2023-12-04T02:40:29;101086.53;;;0.20;100.00
45403;BME280;47427;51.976;5.326;2023-12-04T02:43:31;101071.03;;;0.20;100.00
45403;BME280;47427;51.976;5.326;2023-12-04T02:46:36;101066.66;;;0.19;100.00
45403;BME280;47427;51.976;5.326;2023-12-04T02:49:38;101059.72;;;0.18;100.00
45403;BME280;47427;51.976;5.326;2023-12-04T02:52:41;101054.56;;;0.18;100.00
45403;BME280;47427;51.976;5.326;2023-12-04T02:55:43;101064.28;;;0.22;100.00
45403;BME280;47427;51.976;5.326;2023-12-04T02:58:46;101057.47;;;0.23;100.00
45403;BME280;47427;51.976;5.326;2023-12-04T03:01:48;101037.72;;;0.24;100.00
45403;BME280;47427;51.976;5.326;2023-12-04T03:04:51;101049.34;;;0.30;100.00
45403;BME280;47427;51.976;5.326;2023-12-04T03:07:53;101048.66;;;0.33;100.00
45403;BME280;47427;51.976;5.326;2023-12-04T03:10:55;101038.13;;;0.30;100.00
45403;BME280;47427;51.976;5.326;2023-12-04T03:14:00;101031.28;;;0.30;100.00
45403;BME280;47427;51.976;5.326;2023-12-04T03:17:03;101028.81;;;0.32;100.00
45403;BME280;47427;51.976;5.326;2023-12-04T03:20:05;101016.38;;;0.26;100.00
45403;BME280;47427;51.976;5.326;2023-12-04T03:23:11;101013.00;;;0.27;100.00
45403;BME280;47427;51.976;5.326;2023-12-04T03:26:13;101015.25;;;0.22;100.00
45403;BME280;47427;51.976;5.326;2023-12-04T03:29:16;101003.97;;;0.20;100.00
45403;BME280;47427;51.976;5.326;2023-12-04T03:32:18;101005.63;;;0.20;100.00
45403;BME280;47427;51.976;5.326;2023-12-04T03:35:21;100999.34;;;0.16;100.00
45403;BME280;47427;51.976;5.326;2023-12-04T03:38:23;101003.72;;;0.17;100.00
45403;BME280;47427;51.976;5.326;2023-12-04T03:41:26;100997.34;;;0.12;100.00
45403;BME280;47427;51.976;5.326;2023-12-04T03:44:28;100988.72;;;0.12;100.00
45403;BME280;47427;51.976;5.326;2023-12-04T03:47:31;100979.66;;;0.05;100.00
45403;BME280;47427;51.976;5.326;2023-12-04T03:50:34;100987.94;;;0.13;100.00
45403;BME280;47427;51.976;5.326;2023-12-04T03:53:36;100980.97;;;0.12;100.00
45403;BME280;47427;51.976;5.326;2023-12-04T03:56:39;100968.06;;;0.12;100.00
45403;BME280;47427;51.976;5.326;2023-12-04T03:59:44;100971.66;;;0.14;100.00
45403;BME280;47427;51.976;5.326;2023-12-04T04:02:47;100974.13;;;0.12;100.00
45403;BME280;47427;51.976;5.326;2023-12-04T04:05:50;100965.69;;;0.15;100.00
45403;BME280;47427;51.976;5.326;2023-12-04T04:08:53;100968.41;;;0.16;100.00
45403;BME280;47427;51.976;5.326;2023-12-04T04:11:55;100952.81;;;0.15;100.00
45403;BME280;47427;51.976;5.326;2023-12-04T04:14:58;100946.75;;;0.14;100.00
45403;BME280;47427;51.976;5.326;2023-12-04T04:18:01;100948.66;;;0.17;100.00
45403;BME280;47427;51.976;5.326;2023-12-04T04:21:04;100947.56;;;0.13;100.00
45403;BME280;47427;51.976;5.326;2023-12-04T04:24:07;100951.56;;;0.21;100.00
45403;BME280;47427;51.976;5.326;2023-12-04T04:27:10;100945.84;;;0.26;100.00
45403;BME280;47427;51.976;5.326;2023-12-04T04:30:13;100940.56;;;0.24;100.00
45403;BME280;47427;51.976;5.326;2023-12-04T04:33:16;100932.50;;;0.19;100.00
45403;BME280;47427;51.976;5.326;2023-12-04T04:36:18;100933.69;;;0.25;100.00
45403;BME280;47427;51.976;5.326;2023-12-04T04:39:21;100922.09;;;0.18;100.00
45403;BME280;47427;51.976;5.326;2023-12-04T04:42:24;100935.97;;;0.20;100.00
45403;BME280;47427;51.976;5.326;2023-12-04T04:45:27;100932.59;;;0.21;100.00
45403;BME280;47427;51.976;5.326;2023-12-04T04:48:28;100931.19;;;0.13;100.00
45403;BME280;47427;51.976;5.326;2023-12-04T04:51:31;100937.66;;;0.19;100.00
45403;BME280;47427;51.976;5.326;2023-12-04T04:54:34;100930.28;;;0.12;100.00
45403;BME280;47427;51.976;5.326;2023-12-04T04:57:37;100927.69;;;0.12;100.00
45403;BME280;47427;51.976;5.326;2023-12-04T05:00:38;100927.81;;;0.14;100.00
45403;BME280;47427;51.976;5.326;2023-12-04T05:03:41;100912.22;;;0.12;100.00
45403;BME280;47427;51.976;5.326;2023-12-04T05:06:44;100922.53;;;0.12;100.00
45403;BME280;47427;51.976;5.326;2023-12-04T05:09:46;100912.31;;;0.14;100.00
45403;BME280;47427;51.976;5.326;2023-12-04T05:12:48;100915.91;;;0.16;100.00
45403;BME280;47427;51.976;5.326;2023-12-04T05:15:51;100914.09;;;0.15;100.00
45403;BME280;47427;51.976;5.326;2023-12-04T05:18:53;100904.72;;;0.15;100.00
45403;BME280;47427;51.976;5.326;2023-12-04T05:21:56;100904.09;;;0.19;100.00
45403;BME280;47427;51.976;5.326;2023-12-04T05:24:58;100903.09;;;0.17;100.00
45403;BME280;47427;51.976;5.326;2023-12-04T05:28:01;100902.41;;;0.20;100.00
45403;BME280;47427;51.976;5.326;2023-12-04T05:31:04;100891.00;;;0.16;100.00
45403;BME280;47427;51.976;5.326;2023-12-04T05:34:07;100882.69;;;0.20;100.00
45403;BME280;47427;51.976;5.326;2023-12-04T05:37:09;100875.25;;;0.25;100.00
45403;BME280;47427;51.976;5.326;2023-12-04T05:40:12;100868.31;;;0.24;100.00
45403;BME280;47427;51.976;5.326;2023-12-04T05:43:15;100867.50;;;0.25;100.00
45403;BME280;47427;51.976;5.326;2023-12-04T05:46:17;100858.34;;;0.17;100.00
45403;BME280;47427;51.976;5.326;2023-12-04T05:49:19;100856.91;;;0.20;100.00
45403;BME280;47427;51.976;5.326;2023-12-04T05:52:22;100856.78;;;0.19;100.00
45403;BME280;47427;51.976;5.326;2023-12-04T05:55:25;100859.25;;;0.17;100.00
45403;BME280;47427;51.976;5.326;2023-12-04T05:58:28;100849.16;;;0.20;100.00
45403;BME280;47427;51.976;5.326;2023-12-04T06:01:31;100858.47;;;0.18;100.00
45403;BME280;47427;51.976;5.326;2023-12-04T06:04:32;100859.03;;;0.14;100.00
45403;BME280;47427;51.976;5.326;2023-12-04T06:07:36;100859.16;;;0.16;100.00
45403;BME280;47427;51.976;5.326;2023-12-04T06:10:41;100859.94;;;0.15;100.00
45403;BME280;47427;51.976;5.326;2023-12-04T06:13:44;100853.31;;;0.18;100.00
45403;BME280;47427;51.976;5.326;2023-12-04T06:16:46;100855.09;;;0.19;100.00
45403;BME280;47427;51.976;5.326;2023-12-04T06:19:48;100843.19;;;0.21;100.00
45403;BME280;47427;51.976;5.326;2023-12-04T06:22:51;100852.03;;;0.25;100.00
45403;BME280;47427;51.976;5.326;2023-12-04T06:25:55;100830.28;;;0.21;100.00
45403;BME280;47427;51.976;5.326;2023-12-04T06:28:56;100828.78;;;0.25;100.00
45403;BME280;47427;51.976;5.326;2023-12-04T06:31:59;100824.94;;;0.18;100.00
45403;BME280;47427;51.976;5.326;2023-12-04T06:35:03;100819.16;;;0.22;100.00
45403;BME280;47427;51.976;5.326;2023-12-04T06:38:07;100813.31;;;0.25;100.00
45403;BME280;47427;51.976;5.326;2023-12-04T06:41:09;100802.09;;;0.25;100.00
45403;BME280;47427;51.976;5.326;2023-12-04T06:44:13;100805.28;;;0.20;100.00
45403;BME280;47427;51.976;5.326;2023-12-04T06:47:23;100798.53;;;0.22;100.00
45403;BME280;47427;51.976;5.326;2023-12-04T06:50:27;100789.41;;;0.28;100.00
45403;BME280;47427;51.976;5.326;2023-12-04T06:53:28;100755.34;;;0.20;100.00
45403;BME280;47427;51.976;5.326;2023-12-04T06:56:31;100773.03;;;0.27;100.00
45403;BME280;47427;51.976;5.326;2023-12-04T06:59:34;100782.47;;;0.27;100.00
45403;BME280;47427;51.976;5.326;2023-12-04T07:02:37;100775.94;;;0.32;100.00
45403;BME280;47427;51.976;5.326;2023-12-04T07:05:38;100773.84;;;0.26;100.00
45403;BME280;47427;51.976;5.326;2023-12-04T07:08:41;100778.63;;;0.33;100.00
45403;BME280;47427;51.976;5.326;2023-12-04T07:11:44;100767.88;;;0.27;100.00
45403;BME280;47427;51.976;5.326;2023-12-04T07:14:48;100773.66;;;0.23;100.00
45403;BME280;47427;51.976;5.326;2023-12-04T07:17:49;100757.06;;;0.19;100.00
45403;BME280;47427;51.976;5.326;2023-12-04T07:20:52;100763.13;;;0.33;100.00
45403;BME280;47427;51.976;5.326;2023-12-04T07:23:55;100769.97;;;0.33;100.00
45403;BME280;47427;51.976;5.326;2023-12-04T07:26:58;100769.97;;;0.33;100.00
45403;BME280;47427;51.976;5.326;2023-12-04T07:30:00;100774.44;;;0.35;100.00
45403;BME280;47427;51.976;5.326;2023-12-04T07:33:03;100767.19;;;0.30;100.00
45403;BME280;47427;51.976;5.326;2023-12-04T07:36:06;100763.59;;;0.28;100.00
45403;BME280;47427;51.976;5.326;2023-12-04T07:39:10;100772.34;;;0.30;100.00
45403;BME280;47427;51.976;5.326;2023-12-04T07:42:12;100757.56;;;0.27;100.00
45403;BME280;47427;51.976;5.326;2023-12-04T07:45:15;100767.50;;;0.34;100.00
45403;BME280;47427;51.976;5.326;2023-12-04T07:48:18;100767.78;;;0.39;100.00
45403;BME280;47427;51.976;5.326;2023-12-04T07:51:21;100754.38;;;0.45;100.00
45403;BME280;47427;51.976;5.326;2023-12-04T07:54:23;100764.31;;;0.52;100.00
45403;BME280;47427;51.976;5.326;2023-12-04T07:57:29;100759.06;;;0.50;100.00
45403;BME280;47427;51.976;5.326;2023-12-04T08:00:32;100769.88;;;0.45;100.00
45403;BME280;47427;51.976;5.326;2023-12-04T08:03:35;100769.19;;;0.47;100.00
45403;BME280;47427;51.976;5.326;2023-12-04T08:06:37;100760.13;;;0.40;100.00
45403;BME280;47427;51.976;5.326;2023-12-04T08:09:58;100767.78;;;0.52;100.00
45403;BME280;47427;51.976;5.326;2023-12-04T08:12:59;100754.59;;;0.48;100.00
45403;BME280;47427;51.976;5.326;2023-12-04T08:16:21;100757.47;;;0.52;100.00
45403;BME280;47427;51.976;5.326;2023-12-04T08:19:24;100751.22;;;0.49;100.00
45403;BME280;47427;51.976;5.326;2023-12-04T08:22:27;100737.63;;;0.51;100.00
45403;BME280;47427;51.976;5.326;2023-12-04T08:25:29;100752.03;;;0.61;100.00
45403;BME280;47427;51.976;5.326;2023-12-04T08:28:33;100757.06;;;0.59;100.00
45403;BME280;47427;51.976;5.326;2023-12-04T08:31:36;100747.44;;;0.57;100.00
45403;BME280;47427;51.976;5.326;2023-12-04T08:34:58;100747.94;;;0.64;100.00
45403;BME280;47427;51.976;5.326;2023-12-04T08:37:59;100739.16;;;0.76;100.00
45403;BME280;47427;51.976;5.326;2023-12-04T08:41:01;100742.44;;;0.73;100.00
45403;BME280;47427;51.976;5.326;2023-12-04T08:44:04;100725.19;;;0.72;100.00
45403;BME280;47427;51.976;5.326;2023-12-04T08:47:07;100723.50;;;0.73;100.00
45403;BME280;47427;51.976;5.326;2023-12-04T08:50:09;100709.00;;;0.75;100.00
45403;BME280;47427;51.976;5.326;2023-12-04T08:53:11;100710.28;;;0.81;100.00
45403;BME280;47427;51.976;5.326;2023-12-04T08:56:14;100716.53;;;0.85;100.00
45403;BME280;47427;51.976;5.326;2023-12-04T08:59:17;100696.34;;;0.93;100.00
45403;BME280;47427;51.976;5.326;2023-12-04T09:02:20;100696.03;;;1.01;100.00
45403;BME280;47427;51.976;5.326;2023-12-04T09:05:23;100698.44;;;1.13;100.00
45403;BME280;47427;51.976;5.326;2023-12-04T09:08:26;100701.50;;;1.21;100.00
45403;BME280;47427;51.976;5.326;2023-12-04T09:11:30;100700.19;;;1.27;100.00
45403;BME280;47427;51.976;5.326;2023-12-04T09:14:33;100678.63;;;1.27;100.00
45403;BME280;47427;51.976;5.326;2023-12-04T09:17:36;100677.22;;;1.32;100.00
45403;BME280;47427;51.976;5.326;2023-12-04T09:20:37;100679.44;;;1.41;100.00
45403;BME280;47427;51.976;5.326;2023-12-04T09:23:41;100687.06;;;1.52;100.00
45403;BME280;47427;51.976;5.326;2023-12-04T09:26:44;100685.09;;;1.48;100.00
45403;BME280;47427;51.976;5.326;2023-12-04T09:29:47;100683.13;;;1.59;100.00
45403;BME280;47427;51.976;5.326;2023-12-04T09:32:48;100680.38;;;1.56;100.00
45403;BME280;47427;51.976;5.326;2023-12-04T09:35:53;100683.66;;;1.54;100.00
45403;BME280;47427;51.976;5.326;2023-12-04T09:38:56;100688.56;;;1.49;100.00
45403;BME280;47427;51.976;5.326;2023-12-04T09:42:00;100688.47;;;1.47;100.00
45403;BME280;47427;51.976;5.326;2023-12-04T09:45:03;100693.00;;;1.51;100.00
45403;BME280;47427;51.976;5.326;2023-12-04T09:48:06;100700.16;;;1.56;100.00
45403;BME280;47427;51.976;5.326;2023-12-04T09:51:11;100690.25;;;1.48;100.00
45403;BME280;47427;51.976;5.326;2023-12-04T09:54:17;100689.53;;;1.51;100.00
45403;BME280;47427;51.976;5.326;2023-12-04T09:57:23;100684.66;;;1.70;100.00
45403;BME280;47427;51.976;5.326;2023-12-04T10:00:27;100678.69;;;1.71;100.00
45403;BME280;47427;51.976;5.326;2023-12-04T10:03:30;100660.41;;;1.68;100.00
45403;BME280;47427;51.976;5.326;2023-12-04T10:06:34;100669.31;;;1.73;100.00
45403;BME280;47427;51.976;5.326;2023-12-04T10:09:38;100655.41;;;1.86;100.00
45403;BME280;47427;51.976;5.326;2023-12-04T10:12:42;100662.00;;;1.96;100.00
45403;BME280;47427;51.976;5.326;2023-12-04T10:15:50;100646.31;;;1.93;100.00
45403;BME280;47427;51.976;5.326;2023-12-04T10:18:54;100642.91;;;2.09;100.00
45403;BME280;47427;51.976;5.326;2023-12-04T10:21:59;100644.66;;;2.10;100.00
45403;BME280;47427;51.976;5.326;2023-12-04T10:25:15;100633.16;;;2.05;100.00
45403;BME280;47427;51.976;5.326;2023-12-04T10:28:18;100638.44;;;2.06;100.00
45403;BME280;47427;51.976;5.326;2023-12-04T10:31:23;100633.88;;;2.02;100.00
45403;BME280;47427;51.976;5.326;2023-12-04T10:34:25;100617.75;;;1.91;100.00
45403;BME280;47427;51.976;5.326;2023-12-04T10:37:32;100623.00;;;2.08;100.00
45403;BME280;47427;51.976;5.326;2023-12-04T10:40:38;100607.00;;;2.15;100.00
45403;BME280;47427;51.976;5.326;2023-12-04T10:43:47;100610.41;;;2.14;100.00
45403;BME280;47427;51.976;5.326;2023-12-04T10:46:49;100605.47;;;2.33;100.00
45403;BME280;47427;51.976;5.326;2023-12-04T10:49:52;100593.00;;;2.43;100.00
45403;BME280;47427;51.976;5.326;2023-12-04T10:52:56;100591.78;;;2.36;100.00
45403;BME280;47427;51.976;5.326;2023-12-04T10:55:59;100576.09;;;2.49;100.00
45403;BME280;47427;51.976;5.326;2023-12-04T10:59:11;100569.16;;;2.65;100.00
45403;BME280;47427;51.976;5.326;2023-12-04T11:02:20;100570.69;;;2.61;100.00
45403;BME280;47427;51.976;5.326;2023-12-04T11:05:24;100562.22;;;2.64;100.00
45403;BME280;47427;51.976;5.326;2023-12-04T11:08:33;100570.41;;;2.40;100.00
45403;BME280;47427;51.976;5.326;2023-12-04T11:11:40;100569.53;;;2.39;100.00
45403;BME280;47427;51.976;5.326;2023-12-04T11:14:53;100550.91;;;2.30;100.00
45403;BME280;47427;51.976;5.326;2023-12-04T11:17:59;100548.97;;;2.26;100.00
45403;BME280;47427;51.976;5.326;2023-12-04T11:21:07;100545.97;;;2.19;100.00
45403;BME280;47427;51.976;5.326;2023-12-04T11:24:11;100538.66;;;2.11;100.00
45403;BME280;47427;51.976;5.326;2023-12-04T11:27:16;100511.50;;;2.20;100.00
45403;BME280;47427;51.976;5.326;2023-12-04T11:30:20;100515.16;;;2.23;100.00
45403;BME280;47427;51.976;5.326;2023-12-04T11:33:22;100519.34;;;2.21;100.00
45403;BME280;47427;51.976;5.326;2023-12-04T11:36:23;100512.63;;;2.25;100.00
45403;BME280;47427;51.976;5.326;2023-12-04T11:39:25;100510.16;;;2.26;100.00
45403;BME280;47427;51.976;5.326;2023-12-04T11:42:30;100505.59;;;2.06;100.00
45403;BME280;47427;51.976;5.326;2023-12-04T11:45:33;100516.19;;;2.10;100.00
45403;BME280;47427;51.976;5.326;2023-12-04T11:48:42;100509.53;;;1.99;100.00
45403;BME280;47427;51.976;5.326;2023-12-04T11:55:03;100515.88;;;1.89;100.00
45403;BME280;47427;51.976;5.326;2023-12-04T11:58:12;100517.69;;;1.90;100.00
45403;BME280;47427;51.976;5.326;2023-12-04T12:01:17;100519.16;;;2.02;100.00
45403;BME280;47427;51.976;5.326;2023-12-04T12:04:20;100504.31;;;2.14;100.00
45403;BME280;47427;51.976;5.326;2023-12-04T12:07:22;100497.84;;;2.22;100.00
45403;BME280;47427;51.976;5.326;2023-12-04T12:10:25;100485.88;;;2.24;100.00
45403;BME280;47427;51.976;5.326;2023-12-04T12:13:28;100488.31;;;2.21;100.00
45403;BME280;47427;51.976;5.326;2023-12-04T12:16:34;100485.16;;;2.10;100.00
45403;BME280;47427;51.976;5.326;2023-12-04T12:19:37;100475.16;;;2.02;100.00
45403;BME280;47427;51.976;5.326;2023-12-04T12:22:41;100468.69;;;2.10;100.00
45403;BME280;47427;51.976;5.326;2023-12-04T12:25:45;100460.22;;;1.96;100.00
45403;BME280;47427;51.976;5.326;2023-12-04T12:28:48;100440.13;;;1.92;100.00
45403;BME280;47427;51.976;5.326;2023-12-04T12:31:51;100467.97;;;2.12;100.00
45403;BME280;47427;51.976;5.326;2023-12-04T12:34:54;100462.31;;;2.20;100.00
45403;BME280;47427;51.976;5.326;2023-12-04T12:37:56;100442.84;;;2.26;100.00
45403;BME280;47427;51.976;5.326;2023-12-04T12:41:17;100451.56;;;2.45;100.00
45403;BME280;47427;51.976;5.326;2023-12-04T12:44:19;100439.75;;;2.50;100.00
45403;BME280;47427;51.976;5.326;2023-12-04T12:47:23;100440.00;;;2.54;100.00
45403;BME280;47427;51.976;5.326;2023-12-04T12:50:24;100434.22;;;2.60;100.00
45403;BME280;47427;51.976;5.326;2023-12-04T12:53:32;100411.81;;;2.60;100.00
45403;BME280;47427;51.976;5.326;2023-12-04T12:56:35;100398.03;;;2.44;100.00
45403;BME280;47427;51.976;5.326;2023-12-04T12:59:39;100416.78;;;2.39;100.00
45403;BME280;47427;51.976;5.326;2023-12-04T13:02:41;100408.78;;;2.19;100.00
45403;BME280;47427;51.976;5.326;2023-12-04T13:05:44;100405.97;;;2.14;100.00
45403;BME280;47427;51.976;5.326;2023-12-04T13:08:46;100381.88;;;1.99;100.00
45403;BME280;47427;51.976;5.326;2023-12-04T13:11:50;100395.94;;;2.04;100.00
45403;BME280;47427;51.976;5.326;2023-12-04T13:14:53;100387.03;;;1.99;100.00
45403;BME280;47427;51.976;5.326;2023-12-04T13:17:55;100381.03;;;2.00;100.00
45403;BME280;47427;51.976;5.326;2023-12-04T13:20:59;100378.72;;;2.04;100.00
45403;BME280;47427;51.976;5.326;2023-12-04T13:24:02;100372.00;;;2.08;100.00
45403;BME280;47427;51.976;5.326;2023-12-04T13:27:08;100365.91;;;2.07;100.00
45403;BME280;47427;51.976;5.326;2023-12-04T13:30:11;100361.31;;;2.02;100.00
45403;BME280;47427;51.976;5.326;2023-12-04T13:33:13;100364.97;;;2.05;100.00
45403;BME280;47427;51.976;5.326;2023-12-04T13:36:16;100369.25;;;2.05;100.00
45403;BME280;47427;51.976;5.326;2023-12-04T13:39:18;100368.44;;;2.06;100.00
45403;BME280;47427;51.976;5.326;2023-12-04T13:42:30;100362.31;;;2.04;100.00
45403;BME280;47427;51.976;5.326;2023-12-04T13:45:51;100355.66;;;2.09;100.00
45403;BME280;47427;51.976;5.326;2023-12-04T13:48:56;100346.13;;;2.08;100.00
45403;BME280;47427;51.976;5.326;2023-12-04T13:51:59;100335.69;;;2.06;100.00
45403;BME280;47427;51.976;5.326;2023-12-04T13:55:02;100318.63;;;2.10;100.00
45403;BME280;47427;51.976;5.326;2023-12-04T13:58:16;100334.63;;;2.19;100.00
45403;BME280;47427;51.976;5.326;2023-12-04T14:01:38;100330.09;;;2.15;100.00
45403;BME280;47427;51.976;5.326;2023-12-04T14:04:44;100321.94;;;2.07;100.00
45403;BME280;47427;51.976;5.326;2023-12-04T14:07:48;100311.97;;;2.15;100.00
45403;BME280;47427;51.976;5.326;2023-12-04T14:10:51;100319.34;;;2.24;100.00
45403;BME280;47427;51.976;5.326;2023-12-04T14:13:54;100306.47;;;2.25;100.00
45403;BME280;47427;51.976;5.326;2023-12-04T14:16:57;100305.66;;;2.26;100.00
45403;BME280;47427;51.976;5.326;2023-12-04T14:20:18;100301.88;;;2.20;100.00
45403;BME280;47427;51.976;5.326;2023-12-04T14:23:23;100298.28;;;2.34;100.00
45403;BME280;47427;51.976;5.326;2023-12-04T14:26:26;100289.53;;;2.32;100.00
45403;BME280;47427;51.976;5.326;2023-12-04T14:29:29;100294.56;;;2.29;100.00
45403;BME280;47427;51.976;5.326;2023-12-04T14:32:31;100286.28;;;2.18;100.00
45403;BME280;47427;51.976;5.326;2023-12-04T14:35:35;100287.16;;;2.19;100.00
45403;BME280;47427;51.976;5.326;2023-12-04T14:38:39;100277.53;;;2.16;100.00
45403;BME280;47427;51.976;5.326;2023-12-04T14:41:41;100271.50;;;2.15;100.00
45403;BME280;47427;51.976;5.326;2023-12-04T14:44:43;100271.50;;;2.15;100.00
45403;BME280;47427;51.976;5.326;2023-12-04T14:47:46;100271.63;;;2.19;100.00
45403;BME280;47427;51.976;5.326;2023-12-04T14:50:50;100266.59;;;2.22;100.00
45403;BME280;47427;51.976;5.326;2023-12-04T14:53:52;100273.25;;;2.16;100.00
45403;BME280;47427;51.976;5.326;2023-12-04T14:57:32;100275.94;;;2.18;100.00
45403;BME280;47427;51.976;5.326;2023-12-04T15:00:43;100271.50;;;2.15;100.00
45403;BME280;47427;51.976;5.326;2023-12-04T15:04:10;100266.38;;;2.17;100.00
45403;BME280;47427;51.976;5.326;2023-12-04T15:07:31;100262.03;;;2.16;100.00
45403;BME280;47427;51.976;5.326;2023-12-04T15:11:11;100266.13;;;2.12;100.00
45403;BME280;47427;51.976;5.326;2023-12-04T15:14:32;100259.25;;;1.95;100.00
45403;BME280;47427;51.976;5.326;2023-12-04T15:17:46;100252.03;;;1.89;100.00
45403;BME280;47427;51.976;5.326;2023-12-04T15:20:56;100243.16;;;1.84;100.00
45403;BME280;47427;51.976;5.326;2023-12-04T15:23:59;100248.16;;;1.81;100.00
45403;BME280;47427;51.976;5.326;2023-12-04T15:27:20;100250.47;;;1.75;100.00
45403;BME280;47427;51.976;5.326;2023-12-04T15:30:23;100248.81;;;1.77;100.00
45403;BME280;47427;51.976;5.326;2023-12-04T15:33:27;100245.94;;;1.71;100.00
45403;BME280;47427;51.976;5.326;2023-12-04T15:36:30;100238.31;;;1.74;100.00
45403;BME280;47427;51.976;5.326;2023-12-04T15:39:33;100239.94;;;1.72;100.00
45403;BME280;47427;51.976;5.326;2023-12-04T15:42:36;100233.72;;;1.68;100.00
45403;BME280;47427;51.976;5.326;2023-12-04T15:45:39;100233.97;;;1.73;100.00
45403;BME280;47427;51.976;5.326;2023-12-04T15:48:41;100226.84;;;1.69;100.00
45403;BME280;47427;51.976;5.326;2023-12-04T15:51:44;100231.00;;;1.65;100.00
45403;BME280;47427;51.976;5.326;2023-12-04T15:54:47;100215.13;;;1.59;100.00
45403;BME280;47427;51.976;5.326;2023-12-04T15:57:51;100216.59;;;1.54;100.00
45403;BME280;47427;51.976;5.326;2023-12-04T16:00:57;100205.63;;;1.58;100.00
45403;BME280;47427;51.976;5.326;2023-12-04T16:04:00;100213.38;;;1.58;100.00
45403;BME280;47427;51.976;5.326;2023-12-04T16:07:03;100208.78;;;1.52;100.00